aviador You're here:

LFPN Decoded Metar

TOUSSOUS-LE-NOBLE in FRANCE
Report Time2017-10-22 06:00:00
UTC Time2017-10-22 06:23:41
Flight Rules vfr VFR
Wind240° at 14 kt
W.Decomp.*RWY 25: 13.8 kt HW 2.2 kt LCW
W.Rank240° ranks 5
Current wind is above 240° avg. (8.1)
Visibility9999 m
Phenomena:Rain
Clouds:Few 028 Hf
Broken 094 Hf
Broken 180 Hf
Expected CloudBase > 1,200 ft AGL from Temp-Dew spread
Ceiling9,400 ft
Temp09°C (ISA -5)
Dew Point06°C (82% RH)
AAT3.1°C
QNH1016 hPa
Density Alt-26 ft
Elevation538 ft
Report Wrong Elevation
Raw Report
LFPN 220600Z AUTO 24014KT 9999 FEW028 BKN094 BKN180 09/06 Q1016
TEMPO 25015G25KT RA BKN012=

Extra information for LFPN:More info

Metar Taf Metar & Taf Last 4 Metars F.Rules Stats Wind Profile Meteogram Temp Stats Airport Information Weather charts Add Link Nearby VenuesMetar ALERT Operation Metar Decoded Social comments